createdAt,value
2023-05-18T00:00:16.249Z,8.62
2023-05-18T00:01:16.141Z,8.62
2023-05-18T00:02:16.290Z,8.58
2023-05-18T00:03:16.180Z,8.57
2023-05-18T00:04:16.152Z,8.58
2023-05-18T00:05:16.120Z,8.53
2023-05-18T00:06:16.063Z,8.54
2023-05-18T00:07:16.069Z,8.54
2023-05-18T00:08:16.058Z,8.51
2023-05-18T00:09:16.028Z,8.53
2023-05-18T00:10:16.098Z,8.54
2023-05-18T00:11:16.000Z,8.55
2023-05-18T00:12:15.986Z,8.57
2023-05-18T00:13:16.024Z,8.55
2023-05-18T00:14:15.969Z,8.54
2023-05-18T00:15:15.932Z,8.54
2023-05-18T00:16:16.167Z,8.53
2023-05-18T00:17:15.912Z,8.54
2023-05-18T00:18:15.927Z,8.55
2023-05-18T00:19:15.934Z,8.53
2023-05-18T00:20:15.921Z,8.51
2023-05-18T00:21:15.870Z,8.50
2023-05-18T00:22:15.855Z,8.48
2023-05-18T00:23:15.851Z,8.48
2023-05-18T00:24:15.810Z,8.47
2023-05-18T00:25:15.816Z,8.47
2023-05-18T00:26:15.798Z,8.44
2023-05-18T00:27:15.829Z,8.40
2023-05-18T00:28:15.760Z,8.37
2023-05-18T00:29:15.781Z,8.36
2023-05-18T00:30:15.742Z,8.35
2023-05-18T00:31:15.765Z,8.35
2023-05-18T00:32:15.736Z,8.35
2023-05-18T00:33:15.693Z,8.32
2023-05-18T00:34:15.697Z,8.32
2023-05-18T00:35:15.673Z,8.32
2023-05-18T00:36:15.690Z,8.33
2023-05-18T00:37:15.705Z,8.35
2023-05-18T00:38:15.695Z,8.32
2023-05-18T00:39:15.616Z,8.32
2023-05-18T00:40:15.609Z,8.33
2023-05-18T00:41:15.622Z,8.35
2023-05-18T00:42:15.600Z,8.33
2023-05-18T00:43:15.580Z,8.33
2023-05-18T00:44:15.573Z,8.33
2023-05-18T00:45:15.545Z,8.33
2023-05-18T00:46:15.579Z,8.32
2023-05-18T00:47:15.532Z,8.29
2023-05-18T00:48:15.561Z,8.30
2023-05-18T00:49:15.509Z,8.30
2023-05-18T00:50:15.477Z,8.30
2023-05-18T00:51:15.513Z,8.29
2023-05-18T00:52:15.435Z,8.29
2023-05-18T00:53:15.458Z,8.25
2023-05-18T00:54:15.446Z,8.21
2023-05-18T00:55:15.447Z,8.21
2023-05-18T00:56:15.399Z,8.22
2023-05-18T00:57:15.396Z,8.21
2023-05-18T00:58:15.360Z,8.18
2023-05-18T00:59:15.367Z,8.18
2023-05-18T01:00:15.377Z,8.18
2023-05-18T01:01:15.344Z,8.21
2023-05-18T01:02:15.336Z,8.17
2023-05-18T01:03:15.403Z,8.15
2023-05-18T01:04:15.275Z,8.10
2023-05-18T01:05:15.304Z,8.08
2023-05-18T01:06:15.246Z,8.10
2023-05-18T01:07:15.252Z,8.07
2023-05-18T01:08:15.239Z,8.04
2023-05-18T01:09:15.228Z,8.04
2023-05-18T01:10:15.241Z,8.03
2023-05-18T01:11:15.252Z,8.03
2023-05-18T01:12:15.203Z,8.00
2023-05-18T01:13:15.183Z,7.99
2023-05-18T01:14:15.174Z,7.97
2023-05-18T01:15:15.146Z,7.97
2023-05-18T01:16:15.110Z,7.92
2023-05-18T01:17:15.148Z,7.90
2023-05-18T01:18:15.158Z,7.89
2023-05-18T01:19:15.222Z,7.87
2023-05-18T01:20:15.066Z,7.84
2023-05-18T01:21:15.057Z,7.84
2023-05-18T01:22:15.040Z,7.82
2023-05-18T01:23:15.055Z,7.84
2023-05-18T01:24:15.016Z,7.81
2023-05-18T01:25:15.000Z,7.84
2023-05-18T01:26:15.008Z,7.84
2023-05-18T01:27:14.994Z,7.84
2023-05-18T01:28:14.961Z,7.82
2023-05-18T01:29:14.947Z,7.81
2023-05-18T01:30:14.935Z,7.82
2023-05-18T01:31:14.982Z,7.82
2023-05-18T01:32:14.931Z,7.81
2023-05-18T01:33:14.931Z,7.84
2023-05-18T01:34:14.914Z,7.82
2023-05-18T01:35:14.877Z,7.79
2023-05-18T01:36:14.848Z,7.79
2023-05-18T01:37:14.878Z,7.75
2023-05-18T01:38:14.824Z,7.72
2023-05-18T01:39:14.815Z,7.69
2023-05-18T01:40:14.796Z,7.71
2023-05-18T01:41:14.800Z,7.69
2023-05-18T01:42:14.808Z,7.69
2023-05-18T01:43:14.775Z,7.69
2023-05-18T01:44:14.741Z,7.67
2023-05-18T01:45:14.736Z,7.63
2023-05-18T01:46:14.765Z,7.63
2023-05-18T01:47:14.736Z,7.63
2023-05-18T01:48:14.693Z,7.60
2023-05-18T01:49:14.721Z,7.60
2023-05-18T01:50:14.649Z,7.60
2023-05-18T01:51:14.709Z,7.62
2023-05-18T01:52:14.641Z,7.60
2023-05-18T01:53:14.631Z,7.56
2023-05-18T01:54:14.643Z,7.56
2023-05-18T01:55:14.601Z,7.56
2023-05-18T01:56:14.599Z,7.56
2023-05-18T01:57:14.592Z,7.55
2023-05-18T01:58:14.550Z,7.53
2023-05-18T01:59:14.546Z,7.53
2023-05-18T02:00:14.551Z,7.55
2023-05-18T02:01:14.568Z,7.50
2023-05-18T02:02:14.564Z,7.49
2023-05-18T02:03:14.586Z,7.47
2023-05-18T02:04:14.584Z,7.45
2023-05-18T02:05:14.521Z,7.44
2023-05-18T02:06:14.440Z,7.45
2023-05-18T02:07:14.442Z,7.44
2023-05-18T02:08:14.415Z,7.40
2023-05-18T02:09:14.434Z,7.40
2023-05-18T02:10:14.449Z,7.38
2023-05-18T02:11:14.377Z,7.34
2023-05-18T02:12:14.370Z,7.32
2023-05-18T02:13:14.348Z,7.32
2023-05-18T02:14:14.382Z,7.31
2023-05-18T02:15:14.346Z,7.27
2023-05-18T02:16:14.352Z,7.27
2023-05-18T02:17:14.293Z,7.26
2023-05-18T02:18:14.309Z,7.26
2023-05-18T02:19:14.358Z,7.27
2023-05-18T02:20:14.265Z,7.27
2023-05-18T02:21:14.255Z,7.24
2023-05-18T02:22:14.227Z,7.23
2023-05-18T02:23:14.214Z,7.24
2023-05-18T02:24:14.270Z,7.23
2023-05-18T02:25:14.190Z,7.26
2023-05-18T02:26:14.188Z,7.24
2023-05-18T02:27:14.167Z,7.24
2023-05-18T02:28:14.168Z,7.24
2023-05-18T02:29:14.127Z,7.23
2023-05-18T02:30:15.981Z,7.23
2023-05-18T02:31:14.118Z,7.20
2023-05-18T02:32:14.252Z,7.19
2023-05-18T02:33:14.183Z,7.20
2023-05-18T02:34:14.079Z,7.20
2023-05-18T02:35:14.057Z,7.20
2023-05-18T02:36:14.043Z,7.22
2023-05-18T02:37:14.051Z,7.20
2023-05-18T02:38:14.019Z,7.20
2023-05-18T02:39:14.013Z,7.16
2023-05-18T02:40:13.978Z,7.16
2023-05-18T02:41:13.988Z,7.12
2023-05-18T02:42:13.967Z,7.09
2023-05-18T02:43:13.943Z,7.12
2023-05-18T02:44:13.925Z,7.07
2023-05-18T02:45:13.910Z,7.02
2023-05-18T02:46:13.925Z,7.01
2023-05-18T02:47:13.923Z,6.99
2023-05-18T02:48:13.880Z,6.98
2023-05-18T02:49:13.860Z,6.99
2023-05-18T02:50:13.861Z,7.01
2023-05-18T02:51:13.895Z,6.98
2023-05-18T02:52:13.846Z,6.99
2023-05-18T02:53:13.817Z,6.99
2023-05-18T02:54:13.806Z,6.95
2023-05-18T02:55:13.852Z,6.97
2023-05-18T02:56:13.795Z,6.97
2023-05-18T02:57:13.755Z,6.99
2023-05-18T02:58:13.742Z,7.02
2023-05-18T02:59:13.730Z,6.98
2023-05-18T03:00:13.718Z,6.97
2023-05-18T03:01:13.765Z,6.97
2023-05-18T03:02:13.717Z,6.98
2023-05-18T03:03:13.819Z,6.97
2023-05-18T03:04:13.667Z,6.95
2023-05-18T03:05:13.670Z,6.98
2023-05-18T03:06:13.659Z,6.97
2023-05-18T03:07:13.646Z,6.97
2023-05-18T03:08:13.597Z,6.97
2023-05-18T03:09:13.599Z,6.98
2023-05-18T03:10:13.610Z,6.99
2023-05-18T03:11:14.682Z,6.95
2023-05-18T03:12:13.549Z,6.95
2023-05-18T03:13:13.551Z,6.95
2023-05-18T03:14:13.535Z,6.94
2023-05-18T03:15:13.541Z,6.91
2023-05-18T03:16:13.577Z,6.91
2023-05-18T03:17:13.513Z,6.90
2023-05-18T03:18:13.469Z,6.89
2023-05-18T03:19:13.557Z,6.89
2023-05-18T03:20:13.459Z,6.90
2023-05-18T03:21:13.447Z,6.89
2023-05-18T03:22:13.416Z,6.87
2023-05-18T03:23:13.418Z,6.89
2023-05-18T03:24:13.457Z,6.86
2023-05-18T03:25:13.386Z,6.87
2023-05-18T03:26:13.394Z,6.87
2023-05-18T03:27:13.385Z,6.86
2023-05-18T03:28:13.347Z,6.84
2023-05-18T03:29:13.416Z,6.83
2023-05-18T03:30:13.362Z,6.79
2023-05-18T03:31:13.365Z,6.80
2023-05-18T03:32:13.336Z,6.77
2023-05-18T03:33:13.357Z,6.77
2023-05-18T03:34:13.267Z,6.76
2023-05-18T03:35:13.249Z,6.77
2023-05-18T03:36:13.236Z,6.72
2023-05-18T03:37:13.221Z,6.72
2023-05-18T03:38:13.246Z,6.72
2023-05-18T03:39:13.203Z,6.72
2023-05-18T03:40:13.200Z,6.68
2023-05-18T03:41:13.182Z,6.68
2023-05-18T03:42:13.197Z,6.66
2023-05-18T03:43:13.169Z,6.68
2023-05-18T03:44:13.123Z,6.66
2023-05-18T03:45:13.113Z,6.66
2023-05-18T03:46:13.146Z,6.68
2023-05-18T03:47:13.095Z,6.66
2023-05-18T03:48:13.155Z,6.66
2023-05-18T03:49:13.104Z,6.66
2023-05-18T03:50:13.036Z,6.66
2023-05-18T03:51:13.082Z,6.68
2023-05-18T03:52:13.100Z,6.69
2023-05-18T03:53:13.000Z,6.71
2023-05-18T03:54:12.989Z,6.76
2023-05-18T03:55:12.982Z,6.76
2023-05-18T03:56:12.998Z,6.72
2023-05-18T03:57:13.003Z,6.71
2023-05-18T03:58:12.942Z,6.71
2023-05-18T03:59:12.926Z,6.71
2023-05-18T04:00:12.895Z,6.73
2023-05-18T04:01:12.931Z,6.76
2023-05-18T04:02:12.973Z,6.77
2023-05-18T04:03:12.951Z,6.79
2023-05-18T04:04:12.887Z,6.83
2023-05-18T04:05:12.869Z,6.84
2023-05-18T04:06:12.863Z,6.84
2023-05-18T04:07:14.264Z,6.87
2023-05-18T04:08:12.833Z,6.90
2023-05-18T04:09:12.799Z,6.91
2023-05-18T04:10:12.811Z,6.89
2023-05-18T04:11:12.815Z,6.91
2023-05-18T04:12:12.763Z,6.94
2023-05-18T04:13:12.727Z,6.95
2023-05-18T04:14:12.716Z,6.97
2023-05-18T04:15:12.718Z,7.01
2023-05-18T04:16:12.774Z,7.04
2023-05-18T04:17:12.689Z,7.02
2023-05-18T04:18:12.904Z,7.07
2023-05-18T04:19:12.699Z,7.08
2023-05-18T04:20:12.696Z,7.12
2023-05-18T04:21:12.678Z,7.12
2023-05-18T04:22:12.620Z,7.17
2023-05-18T04:23:12.611Z,7.19
2023-05-18T04:24:12.606Z,7.19
2023-05-18T04:25:12.620Z,7.22
2023-05-18T04:26:12.595Z,7.24
2023-05-18T04:27:12.557Z,7.26
2023-05-18T04:28:12.525Z,7.29
2023-05-18T04:29:12.526Z,7.32
2023-05-18T04:30:12.521Z,7.35
2023-05-18T04:31:12.502Z,7.38
2023-05-18T04:32:12.524Z,7.40
2023-05-18T04:33:12.505Z,7.44
2023-05-18T04:34:12.508Z,7.45
2023-05-18T04:35:12.467Z,7.47
2023-05-18T04:36:12.419Z,7.50
2023-05-18T04:37:12.416Z,7.55
2023-05-18T04:38:12.423Z,7.56
2023-05-18T04:39:12.401Z,7.55
2023-05-18T04:40:12.371Z,7.55
2023-05-18T04:41:12.355Z,7.55
2023-05-18T04:42:12.342Z,7.58
2023-05-18T04:43:12.351Z,7.58
2023-05-18T04:44:12.350Z,7.59
2023-05-18T04:45:12.331Z,7.62
2023-05-18T04:46:12.386Z,7.63
2023-05-18T04:47:12.279Z,7.67
2023-05-18T04:48:12.362Z,7.66
2023-05-18T04:49:12.280Z,7.67
2023-05-18T04:50:12.226Z,7.67
2023-05-18T04:51:12.237Z,7.67
2023-05-18T04:52:12.211Z,7.69
2023-05-18T04:53:12.236Z,7.69
2023-05-18T04:54:12.179Z,7.74
2023-05-18T04:55:12.184Z,7.77
2023-05-18T04:56:12.188Z,7.77
2023-05-18T04:57:12.147Z,7.81
2023-05-18T04:58:12.136Z,7.82
2023-05-18T04:59:12.107Z,7.82
2023-05-18T05:00:12.132Z,7.82
2023-05-18T05:01:12.141Z,7.84
2023-05-18T05:02:12.186Z,7.85
2023-05-18T05:03:12.125Z,7.92
2023-05-18T05:04:12.053Z,7.93
2023-05-18T05:05:12.037Z,7.93
2023-05-18T05:06:12.023Z,7.92
2023-05-18T05:07:12.038Z,7.93
2023-05-18T05:08:12.013Z,7.92
2023-05-18T05:09:11.966Z,7.99
2023-05-18T05:10:11.965Z,7.99
2023-05-18T05:11:12.032Z,8.00
2023-05-18T05:12:11.969Z,8.03
2023-05-18T05:13:11.912Z,8.03
2023-05-18T05:14:11.911Z,8.04
2023-05-18T05:15:11.886Z,8.10
2023-05-18T05:16:12.036Z,8.12
2023-05-18T05:17:11.857Z,8.17
2023-05-18T05:18:11.922Z,8.20
2023-05-18T05:19:11.870Z,8.22
2023-05-18T05:20:11.833Z,8.25
2023-05-18T05:21:11.860Z,8.26
2023-05-18T05:22:11.821Z,8.25
2023-05-18T05:23:11.795Z,8.28
2023-05-18T05:24:11.786Z,8.32
2023-05-18T05:25:11.805Z,8.35
2023-05-18T05:26:11.786Z,8.35
2023-05-18T05:27:11.741Z,8.33
2023-05-18T05:28:11.727Z,8.33
2023-05-18T05:29:11.720Z,8.35
2023-05-18T05:30:11.717Z,8.37
2023-05-18T05:31:11.729Z,8.39
2023-05-18T05:32:11.682Z,8.37
2023-05-18T05:33:11.695Z,8.42
2023-05-18T05:34:11.653Z,8.44
2023-05-18T05:35:11.686Z,8.47
2023-05-18T05:36:11.617Z,8.48
2023-05-18T05:37:11.623Z,8.54
2023-05-18T05:38:11.593Z,8.58
2023-05-18T05:39:11.592Z,8.60
2023-05-18T05:40:11.637Z,8.63
2023-05-18T05:41:11.547Z,8.63
2023-05-18T05:42:11.555Z,8.66
2023-05-18T05:43:11.525Z,8.68
2023-05-18T05:44:11.753Z,8.69
2023-05-18T05:45:11.496Z,8.72
2023-05-18T05:46:11.489Z,8.73
2023-05-18T05:47:11.549Z,8.75
2023-05-18T05:48:13.738Z,8.79
2023-05-18T05:49:11.460Z,8.81
2023-05-18T05:50:11.439Z,8.83
2023-05-18T05:51:11.422Z,8.86
2023-05-18T05:52:11.434Z,8.84
2023-05-18T05:53:11.444Z,8.87
2023-05-18T05:54:11.407Z,8.88
2023-05-18T05:55:11.359Z,8.91
2023-05-18T05:56:11.377Z,8.94
2023-05-18T05:57:11.339Z,8.96
2023-05-18T05:58:11.357Z,8.94
2023-05-18T05:59:11.326Z,8.97
2023-05-18T06:00:11.330Z,9.01
2023-05-18T06:01:11.297Z,9.06
2023-05-18T06:02:11.308Z,9.12
2023-05-18T06:03:11.331Z,9.12
2023-05-18T06:04:11.258Z,9.15
2023-05-18T06:05:11.232Z,9.15
2023-05-18T06:06:11.236Z,9.18
2023-05-18T06:07:11.229Z,9.20
2023-05-18T06:08:11.207Z,9.21
2023-05-18T06:09:11.171Z,9.24
2023-05-18T06:10:11.177Z,9.23
2023-05-18T06:11:11.595Z,9.30
2023-05-18T06:12:11.178Z,9.30
2023-05-18T06:13:11.132Z,9.35
2023-05-18T06:14:11.109Z,9.40
2023-05-18T06:15:11.101Z,9.43
2023-05-18T06:16:11.160Z,9.50
2023-05-18T06:17:11.113Z,9.50
2023-05-18T06:18:13.397Z,9.53
2023-05-18T06:19:11.067Z,9.58
2023-05-18T06:20:11.026Z,9.63
2023-05-18T06:21:11.058Z,9.67
2023-05-18T06:22:11.020Z,9.70
2023-05-18T06:23:10.990Z,9.70
2023-05-18T06:24:10.993Z,9.68
2023-05-18T06:25:10.967Z,9.68
2023-05-18T06:26:11.015Z,9.67
2023-05-18T06:27:10.922Z,9.71
2023-05-18T06:28:10.911Z,9.76
2023-05-18T06:29:10.934Z,9.79
2023-05-18T06:30:10.907Z,9.81
2023-05-18T06:31:10.892Z,9.83
2023-05-18T06:32:10.909Z,9.86
2023-05-18T06:33:10.912Z,9.89
2023-05-18T06:34:10.842Z,9.94
2023-05-18T06:35:10.898Z,9.97
2023-05-18T06:36:10.832Z,10.00
2023-05-18T06:37:10.789Z,10.03
2023-05-18T06:38:10.795Z,10.06
2023-05-18T06:39:10.765Z,10.09
2023-05-18T06:40:10.806Z,10.12
2023-05-18T06:41:10.737Z,10.17
2023-05-18T06:42:10.736Z,10.22
2023-05-18T06:43:10.713Z,10.25
2023-05-18T06:44:10.699Z,10.25
2023-05-18T06:45:10.736Z,10.26
2023-05-18T06:46:10.691Z,10.30
2023-05-18T06:47:10.680Z,10.34
2023-05-18T06:48:10.704Z,10.39
2023-05-18T06:49:10.657Z,10.42
2023-05-18T06:50:10.656Z,10.47
2023-05-18T06:51:10.643Z,10.52
2023-05-18T06:52:10.592Z,10.55
2023-05-18T06:53:10.581Z,10.59
2023-05-18T06:54:10.642Z,10.65
2023-05-18T06:55:10.550Z,10.65
2023-05-18T06:56:10.540Z,10.73
2023-05-18T06:57:10.531Z,10.76
2023-05-18T06:58:10.541Z,10.83
2023-05-18T06:59:10.555Z,10.84
2023-05-18T07:00:10.493Z,10.91
2023-05-18T07:01:10.513Z,10.95
2023-05-18T07:02:10.459Z,10.98
2023-05-18T07:03:10.552Z,10.98
2023-05-18T07:04:10.455Z,11.06
2023-05-18T07:05:10.418Z,11.09
2023-05-18T07:06:10.411Z,11.14
2023-05-18T07:07:10.393Z,11.16
2023-05-18T07:08:10.419Z,11.16
2023-05-18T07:09:10.361Z,11.14
2023-05-18T07:10:10.364Z,11.19
2023-05-18T07:11:10.338Z,11.20
2023-05-18T07:12:10.355Z,11.24
2023-05-18T07:13:10.354Z,11.28
2023-05-18T07:14:10.307Z,11.28
2023-05-18T07:15:10.302Z,11.31
2023-05-18T07:16:10.292Z,11.31
2023-05-18T07:17:10.479Z,11.34
2023-05-18T07:18:10.299Z,11.38
2023-05-18T07:19:10.280Z,11.39
2023-05-18T07:20:10.253Z,11.44
2023-05-18T07:21:10.212Z,11.47
2023-05-18T07:22:10.230Z,11.52
2023-05-18T07:23:10.174Z,11.57
2023-05-18T07:24:10.165Z,11.65
2023-05-18T07:25:10.141Z,11.72
2023-05-18T07:26:10.192Z,11.74
2023-05-18T07:27:10.130Z,11.75
2023-05-18T07:28:10.123Z,11.82
2023-05-18T07:29:10.186Z,11.83
2023-05-18T07:30:10.091Z,11.87
2023-05-18T07:31:10.162Z,11.96
2023-05-18T07:32:10.082Z,11.99
2023-05-18T07:33:10.106Z,12.02
2023-05-18T07:34:10.020Z,12.09
2023-05-18T07:35:10.035Z,12.06
2023-05-18T07:36:10.037Z,12.08
2023-05-18T07:37:09.981Z,12.06
2023-05-18T07:38:10.008Z,12.02
2023-05-18T07:39:09.960Z,12.05
2023-05-18T07:40:09.986Z,12.08
2023-05-18T07:41:09.949Z,12.06
2023-05-18T07:42:09.926Z,12.06
2023-05-18T07:43:09.916Z,12.09
2023-05-18T07:44:09.915Z,12.13
2023-05-18T07:45:09.899Z,12.16
2023-05-18T07:46:09.927Z,12.20
2023-05-18T07:47:09.940Z,12.26
2023-05-18T07:48:09.910Z,12.27
2023-05-18T07:49:09.835Z,12.27
2023-05-18T07:50:09.846Z,12.31
2023-05-18T07:51:09.813Z,12.31
2023-05-18T07:52:09.791Z,12.39
2023-05-18T07:53:09.789Z,12.42
2023-05-18T07:54:09.796Z,12.42
2023-05-18T07:55:09.788Z,12.46
2023-05-18T07:56:09.733Z,12.48
2023-05-18T07:57:09.709Z,12.45
2023-05-18T07:58:09.707Z,12.54
2023-05-18T07:59:09.711Z,12.52
2023-05-18T08:00:09.691Z,12.51
2023-05-18T08:01:09.708Z,12.56
2023-05-18T08:02:09.677Z,12.56
2023-05-18T08:03:09.681Z,12.56
2023-05-18T08:04:09.741Z,12.62
2023-05-18T08:05:09.607Z,12.62
2023-05-18T08:06:09.634Z,12.62
2023-05-18T08:07:09.600Z,12.63
2023-05-18T08:08:09.587Z,12.69
2023-05-18T08:09:09.571Z,12.71
2023-05-18T08:10:09.550Z,12.78
2023-05-18T08:11:09.544Z,12.81
2023-05-18T08:12:09.523Z,12.84
2023-05-18T08:13:09.526Z,12.87
2023-05-18T08:14:09.506Z,12.89
2023-05-18T08:15:09.468Z,12.96
2023-05-18T08:16:12.363Z,13.02
2023-05-18T08:17:09.537Z,13.06
2023-05-18T08:18:09.518Z,13.04
2023-05-18T08:19:09.458Z,13.03
2023-05-18T08:20:09.413Z,12.99
2023-05-18T08:21:09.456Z,12.92
2023-05-18T08:22:09.407Z,12.92
2023-05-18T08:23:09.390Z,12.95
2023-05-18T08:24:09.348Z,12.99
2023-05-18T08:25:09.333Z,12.97
2023-05-18T08:26:10.930Z,12.88
2023-05-18T08:27:09.345Z,12.93
2023-05-18T08:28:09.599Z,12.89
2023-05-18T08:29:09.288Z,12.93
2023-05-18T08:30:09.280Z,12.95
2023-05-18T08:31:09.275Z,12.99
2023-05-18T08:32:09.302Z,12.93
2023-05-18T08:33:09.380Z,12.96
2023-05-18T08:34:09.210Z,13.04
2023-05-18T08:35:09.190Z,13.07
2023-05-18T08:36:09.191Z,13.07
2023-05-18T08:37:09.175Z,13.11
2023-05-18T08:38:09.168Z,13.18
2023-05-18T08:39:09.154Z,13.24
2023-05-18T08:40:09.138Z,13.33
2023-05-18T08:41:09.124Z,13.33
2023-05-18T08:42:09.099Z,13.37
2023-05-18T08:43:09.085Z,13.43
2023-05-18T08:44:09.070Z,13.38
2023-05-18T08:45:09.059Z,13.36
2023-05-18T08:46:09.071Z,13.33
2023-05-18T08:47:09.034Z,13.36
2023-05-18T08:48:09.145Z,13.38
2023-05-18T08:49:09.106Z,13.37
2023-05-18T08:50:08.999Z,13.32
2023-05-18T08:51:08.981Z,13.33
2023-05-18T08:52:08.974Z,13.27
2023-05-18T08:53:08.950Z,13.20
2023-05-18T08:54:08.933Z,13.20
2023-05-18T08:55:11.825Z,13.21
2023-05-18T08:56:08.905Z,13.22
2023-05-18T08:57:08.905Z,13.29
2023-05-18T08:58:08.883Z,13.25
2023-05-18T08:59:08.932Z,13.29
2023-05-18T09:00:08.877Z,13.32
2023-05-18T09:01:08.895Z,13.33
2023-05-18T09:02:08.917Z,13.40
2023-05-18T09:03:08.861Z,13.49
2023-05-18T09:04:08.860Z,13.58
2023-05-18T09:05:08.863Z,13.58
2023-05-18T09:06:08.791Z,13.59
2023-05-18T09:07:08.777Z,13.65
2023-05-18T09:08:08.783Z,13.73
2023-05-18T09:09:08.773Z,13.79
2023-05-18T09:10:08.718Z,13.84
2023-05-18T09:11:08.707Z,13.92
2023-05-18T09:12:08.681Z,13.94
2023-05-18T09:13:08.677Z,13.91
2023-05-18T09:14:08.682Z,13.92
2023-05-18T09:15:08.647Z,13.99
2023-05-18T09:16:08.717Z,14.06
2023-05-18T09:17:08.624Z,14.04
2023-05-18T09:18:08.655Z,14.01
2023-05-18T09:19:08.656Z,13.95
2023-05-18T09:20:08.569Z,13.95
2023-05-18T09:21:08.570Z,13.91
2023-05-18T09:22:08.568Z,13.98
2023-05-18T09:23:08.628Z,14.01
2023-05-18T09:24:08.534Z,13.94
2023-05-18T09:25:08.511Z,13.98
2023-05-18T09:26:08.506Z,13.98
2023-05-18T09:27:08.498Z,13.98
2023-05-18T09:28:08.478Z,13.96
2023-05-18T09:29:08.458Z,13.99
2023-05-18T09:30:08.441Z,13.99
2023-05-18T09:31:08.463Z,14.01
2023-05-18T09:32:08.571Z,14.02
2023-05-18T09:33:08.447Z,14.01
2023-05-18T09:34:08.432Z,14.06
2023-05-18T09:35:08.382Z,14.09
2023-05-18T09:36:08.359Z,14.13
2023-05-18T09:37:08.369Z,14.14
2023-05-18T09:38:08.336Z,14.19
2023-05-18T09:39:08.320Z,14.25
2023-05-18T09:40:08.307Z,14.31
2023-05-18T09:41:08.306Z,14.31
2023-05-18T09:42:08.287Z,14.29
2023-05-18T09:43:08.273Z,14.28
2023-05-18T09:44:08.253Z,14.28
2023-05-18T09:45:08.230Z,14.29
2023-05-18T09:46:08.258Z,14.31
2023-05-18T09:47:08.249Z,14.34
2023-05-18T09:48:08.207Z,14.35
2023-05-18T09:49:08.216Z,14.29
2023-05-18T09:50:08.175Z,14.31
2023-05-18T09:51:08.177Z,14.37
2023-05-18T09:52:08.129Z,14.38
2023-05-18T09:53:08.140Z,14.43
2023-05-18T09:54:08.116Z,14.53
2023-05-18T09:55:08.144Z,14.54
2023-05-18T09:56:08.103Z,14.53
2023-05-18T09:57:11.155Z,14.56
2023-05-18T09:58:08.049Z,14.56
2023-05-18T09:59:08.053Z,14.52
2023-05-18T10:00:08.053Z,14.54
2023-05-18T10:01:08.108Z,14.60
2023-05-18T10:02:08.006Z,14.65
2023-05-18T10:03:08.040Z,14.60
2023-05-18T10:04:08.034Z,14.56
2023-05-18T10:05:08.007Z,14.61
2023-05-18T10:06:07.943Z,14.67
2023-05-18T10:07:07.940Z,14.75
2023-05-18T10:08:07.920Z,14.72
2023-05-18T10:09:07.938Z,14.72
2023-05-18T10:10:09.273Z,14.83
2023-05-18T10:11:07.876Z,14.98
2023-05-18T10:12:07.870Z,15.12
2023-05-18T10:13:07.856Z,15.24
2023-05-18T10:14:07.912Z,15.31
2023-05-18T10:15:07.828Z,15.36
2023-05-18T10:16:07.826Z,15.49
2023-05-18T10:18:08.901Z,15.82
2023-05-18T10:19:07.841Z,15.93
2023-05-18T10:20:07.763Z,16.06
2023-05-18T10:21:07.757Z,16.12
2023-05-18T10:22:07.733Z,16.14
2023-05-18T10:23:07.772Z,16.03
2023-05-18T10:24:07.721Z,16.00
2023-05-18T10:25:07.734Z,15.88
2023-05-18T10:26:07.733Z,15.94
2023-05-18T10:27:07.669Z,15.94
2023-05-18T10:28:07.690Z,15.94
2023-05-18T10:29:07.648Z,16.03
2023-05-18T10:30:07.634Z,16.16
2023-05-18T10:31:07.679Z,16.35
2023-05-18T10:32:08.084Z,16.44
2023-05-18T10:33:17.072Z,16.56
2023-05-18T10:34:08.563Z,16.67
2023-05-18T10:35:07.564Z,16.80
2023-05-18T10:36:07.546Z,16.95
2023-05-18T10:37:07.981Z,17.17
2023-05-18T10:38:07.554Z,17.08
2023-05-18T10:39:07.521Z,17.10
2023-05-18T10:40:07.484Z,17.13
2023-05-18T10:41:07.485Z,17.14
2023-05-18T10:42:07.482Z,17.29
2023-05-18T10:43:07.499Z,17.40
2023-05-18T10:44:07.433Z,17.06
2023-05-18T10:45:07.434Z,16.99
2023-05-18T10:46:07.570Z,17.08
2023-05-18T10:47:07.505Z,17.13
2023-05-18T10:48:07.406Z,17.20
2023-05-18T10:49:07.365Z,17.29
2023-05-18T10:50:07.363Z,17.08
2023-05-18T10:51:07.367Z,17.06
2023-05-18T10:52:07.372Z,17.32
2023-05-18T10:53:07.330Z,17.62
2023-05-18T10:54:07.299Z,17.85
2023-05-18T10:55:07.298Z,18.04
2023-05-18T10:56:07.306Z,18.27
2023-05-18T10:57:07.291Z,18.44
2023-05-18T10:58:07.239Z,18.58
2023-05-18T10:59:07.227Z,18.97
2023-05-18T11:00:07.221Z,19.33
2023-05-18T11:01:07.223Z,19.65
2023-05-18T11:02:07.241Z,19.91
2023-05-18T11:03:07.223Z,20.13
2023-05-18T11:04:07.156Z,20.24
2023-05-18T11:05:07.175Z,20.21
2023-05-18T11:06:07.173Z,20.53
2023-05-18T11:07:07.129Z,20.68
2023-05-18T11:08:07.106Z,20.72
2023-05-18T11:09:07.097Z,20.53
2023-05-18T11:10:07.096Z,20.53
2023-05-18T11:11:07.072Z,20.91
2023-05-18T11:12:07.047Z,21.16
2023-05-18T11:13:07.054Z,21.13
2023-05-18T11:14:07.016Z,20.96
2023-05-18T11:15:07.036Z,21.11
2023-05-18T11:16:07.084Z,21.27
2023-05-18T11:17:06.990Z,21.48
2023-05-18T11:18:06.997Z,21.53
2023-05-18T11:19:07.059Z,21.54
2023-05-18T11:20:07.016Z,21.46
2023-05-18T11:21:06.932Z,21.46
2023-05-18T11:22:06.917Z,21.54
2023-05-18T11:23:06.908Z,21.54
2023-05-18T11:24:06.905Z,21.53
2023-05-18T11:25:06.882Z,21.39
2023-05-18T11:26:06.861Z,21.17
2023-05-18T11:27:06.850Z,20.98
2023-05-18T11:28:06.864Z,21.26
2023-05-18T11:29:06.846Z,21.11
2023-05-18T11:30:15.269Z,20.86
2023-05-18T11:31:07.797Z,20.72
2023-05-18T11:32:08.211Z,20.79
2023-05-18T11:33:06.905Z,20.99
2023-05-18T11:34:06.746Z,21.29
2023-05-18T11:35:06.747Z,21.61
2023-05-18T11:36:06.725Z,21.98
2023-05-18T11:37:06.746Z,21.97
2023-05-18T11:38:06.724Z,22.04
2023-05-18T11:39:06.726Z,21.98
2023-05-18T11:40:09.240Z,21.97
2023-05-18T11:41:06.668Z,22.06
2023-05-18T11:42:06.661Z,22.29
2023-05-18T11:43:06.650Z,22.13
2023-05-18T11:44:06.623Z,22.04
2023-05-18T11:45:06.619Z,22.04
2023-05-18T11:46:06.592Z,21.98
2023-05-18T11:47:06.592Z,22.09
2023-05-18T11:48:06.622Z,21.64
2023-05-18T11:49:06.649Z,21.53
2023-05-18T11:50:06.534Z,22.02
2023-05-18T11:51:06.520Z,22.14
2023-05-18T11:52:06.541Z,22.35
2023-05-18T11:53:06.504Z,22.64
2023-05-18T11:54:06.481Z,22.90
2023-05-18T11:55:06.483Z,22.84
2023-05-18T11:56:06.458Z,23.07
2023-05-18T11:57:06.465Z,23.24
2023-05-18T11:58:06.427Z,23.57
2023-05-18T11:59:06.424Z,24.00
2023-05-18T12:00:06.409Z,24.20
2023-05-18T12:01:06.394Z,24.32
2023-05-18T12:02:06.418Z,24.22
2023-05-18T12:03:06.498Z,24.14
2023-05-18T12:04:06.457Z,23.60
2023-05-18T12:05:06.346Z,23.87
2023-05-18T12:06:06.341Z,24.12
2023-05-18T12:07:06.316Z,23.76
2023-05-18T12:08:06.302Z,23.43
2023-05-18T12:09:06.282Z,23.32
2023-05-18T12:10:06.282Z,23.26
2023-05-18T12:11:06.266Z,23.58
2023-05-18T12:12:06.257Z,24.07
2023-05-18T12:13:06.241Z,24.08
2023-05-18T12:14:06.243Z,23.83
2023-05-18T12:15:06.213Z,23.89
2023-05-18T12:16:06.210Z,23.90
2023-05-18T12:17:06.209Z,23.45
2023-05-18T12:18:06.165Z,23.29
2023-05-18T12:19:06.230Z,23.26
2023-05-18T12:20:06.169Z,23.12
2023-05-18T12:21:06.120Z,23.34
2023-05-18T12:22:06.108Z,23.60
2023-05-18T12:23:06.102Z,23.60
2023-05-18T12:24:06.146Z,23.55
2023-05-18T12:25:06.102Z,23.49
2023-05-18T12:26:06.059Z,23.68
2023-05-18T12:27:07.548Z,23.77
2023-05-18T12:28:06.030Z,23.85
2023-05-18T12:29:06.051Z,23.40
2023-05-18T12:30:05.999Z,23.19
2023-05-18T12:31:06.047Z,23.38
2023-05-18T12:32:05.974Z,23.31
2023-05-18T12:33:05.982Z,23.38
2023-05-18T12:34:05.982Z,23.39
2023-05-18T12:35:05.949Z,23.52
2023-05-18T12:36:05.926Z,22.72
2023-05-18T12:37:05.918Z,22.31
2023-05-18T12:38:05.925Z,22.17
2023-05-18T12:39:05.901Z,21.94
2023-05-18T12:40:05.864Z,21.72
2023-05-18T12:41:05.862Z,21.83
2023-05-18T12:42:05.838Z,22.19
2023-05-18T12:43:05.860Z,22.09
2023-05-18T12:44:05.822Z,21.63
2023-05-18T12:45:06.787Z,21.74
2023-05-18T12:46:05.820Z,21.94
2023-05-18T12:47:05.808Z,22.19
2023-05-18T12:48:05.931Z,21.90
2023-05-18T12:49:05.759Z,21.92
2023-05-18T12:50:05.745Z,21.79
2023-05-18T12:51:05.740Z,21.74
2023-05-18T12:52:05.728Z,21.24
2023-05-18T12:53:05.716Z,21.24
2023-05-18T12:54:05.708Z,21.35
2023-05-18T12:55:05.675Z,21.26
2023-05-18T12:56:05.681Z,21.17
2023-05-18T12:57:05.680Z,21.27
2023-05-18T12:58:05.692Z,21.27
2023-05-18T12:59:05.615Z,21.29
2023-05-18T13:00:05.619Z,21.23
2023-05-18T13:01:05.584Z,21.19
2023-05-18T13:02:05.640Z,21.02
2023-05-18T13:03:05.692Z,20.93
2023-05-18T13:04:05.620Z,21.02
2023-05-18T13:05:05.540Z,21.14
2023-05-18T13:06:05.547Z,21.20